Time,TemperatureF,DewpointF,PressureIn,WindDirection,WindDirectionDegrees,WindSpeedMPH,WindSpeedGustMPH,Humidity,HourlyPrecipIn,Conditions,Clouds,dailyrainin,SolarRadiationWatts/m^2,SoftwareType,DateUTC
2013-06-13 00:02:00,68.0,15.0,-100.00,NNW,332,8.0,10.0,13,0.00,,,0.00,0.000000,,2013-06-13 06:02:00,
2013-06-13 00:11:00,68.0,15.0,-100.00,NNW,332,8.0,10.0,13,0.00,,,0.00,0.000000,,2013-06-13 06:11:00,
2013-06-13 00:33:00,67.0,15.0,-100.00,NNW,341,6.0,8.0,13,-99.99,,,0.00,0.000000,,2013-06-13 06:33:00,
2013-06-13 00:44:00,67.0,15.0,-100.00,NNW,341,6.0,8.0,13,-99.99,,,0.00,0.000000,,2013-06-13 06:44:00,
2013-06-13 01:01:00,67.0,15.0,-100.00,NNW,341,6.0,8.0,13,-99.99,,,0.00,0.000000,,2013-06-13 07:01:00,
2013-06-13 01:11:00,67.0,15.0,-100.00,NNW,341,6.0,8.0,13,-99.99,,,0.00,0.000000,,2013-06-13 07:11:00,
2013-06-13 01:33:00,67.0,15.0,-100.00,East,89,3.0,6.0,13,-99.99,,,0.00,0.000000,,2013-06-13 07:33:00,
2013-06-13 01:42:00,67.0,15.0,-100.00,East,89,3.0,6.0,13,-99.99,,,0.00,0.000000,,2013-06-13 07:42:00,
2013-06-13 02:01:00,67.0,15.0,-100.00,East,89,3.0,6.0,13,-99.99,,,0.00,0.000000,,2013-06-13 08:01:00,
2013-06-13 02:11:00,67.0,15.0,-100.00,East,89,3.0,6.0,13,-99.99,,,0.00,0.000000,,2013-06-13 08:11:00,
2013-06-13 02:32:00,67.0,15.0,-100.00,North,9,2.0,5.0,13,-99.99,,,0.00,0.000000,,2013-06-13 08:32:00,
2013-06-13 02:43:00,67.0,15.0,-100.00,North,9,2.0,5.0,13,-99.99,,,0.00,0.000000,,2013-06-13 08:43:00,
2013-06-13 03:02:00,67.0,15.0,-100.00,North,9,2.0,5.0,13,-99.99,,,0.00,0.000000,,2013-06-13 09:02:00,
2013-06-13 03:11:00,67.0,15.0,-100.00,North,9,2.0,5.0,13,-99.99,,,0.00,0.000000,,2013-06-13 09:11:00,
2013-06-13 03:32:00,66.0,14.0,-100.00,NE,50,2.0,4.0,13,-99.99,,,0.00,0.000000,,2013-06-13 09:32:00,
2013-06-13 03:42:00,66.0,14.0,-100.00,NE,50,2.0,4.0,13,-99.99,,,0.00,0.000000,,2013-06-13 09:42:00,
2013-06-13 04:01:00,66.0,14.0,-100.00,NE,50,2.0,4.0,13,-99.99,,,0.00,0.000000,,2013-06-13 10:01:00,
2013-06-13 04:11:00,66.0,14.0,-100.00,NE,50,2.0,4.0,13,-99.99,,,0.00,0.000000,,2013-06-13 10:11:00,
2013-06-13 04:33:00,63.0,15.0,-100.00,SE,127,9.0,12.0,15,-99.99,,,0.00,0.000000,,2013-06-13 10:33:00,
2013-06-13 04:43:00,63.0,15.0,-100.00,SE,127,9.0,12.0,15,-99.99,,,0.00,0.000000,,2013-06-13 10:43:00,
2013-06-13 05:11:00,63.0,15.0,-100.00,SE,127,9.0,12.0,15,-99.99,,,0.00,0.000000,,2013-06-13 11:11:00,
2013-06-13 05:32:00,63.0,15.0,-100.00,SE,129,4.0,11.0,15,-99.99,,,-99.99,0.000000,,2013-06-13 11:32:00,
2013-06-13 05:42:00,63.0,15.0,-100.00,SE,129,4.0,11.0,15,-99.99,,,-99.99,0.000000,,2013-06-13 11:42:00,
2013-06-13 06:11:00,63.0,15.0,-100.00,SE,129,4.0,11.0,15,-99.99,,,-99.99,0.000000,,2013-06-13 12:11:00,
2013-06-13 06:35:00,63.0,15.0,-100.00,SE,132,6.0,10.0,15,-99.99,,,0.00,3.000000,,2013-06-13 12:35:00,
2013-06-13 06:43:00,63.0,15.0,-100.00,SE,132,6.0,10.0,15,-99.99,,,0.00,3.000000,,2013-06-13 12:43:00,
2013-06-13 07:33:00,64.0,20.0,-100.00,SE,137,8.0,15.0,18,-99.99,,,0.00,73.000000,,2013-06-13 13:33:00,
2013-06-13 07:43:00,64.0,20.0,-100.00,SE,137,8.0,15.0,18,-99.99,,,0.00,73.000000,,2013-06-13 13:43:00,
2013-06-13 08:02:00,64.0,20.0,-100.00,SE,137,8.0,15.0,18,-99.99,,,0.00,73.000000,,2013-06-13 14:02:00,
2013-06-13 08:11:00,64.0,20.0,-100.00,SE,137,8.0,15.0,18,-99.99,,,0.00,73.000000,,2013-06-13 14:11:00,
2013-06-13 08:12:00,69.0,27.0,-100.00,SSE,163,5.0,10.0,21,-99.99,,,0.00,268.000000,,2013-06-13 14:12:00,
2013-06-13 08:33:00,69.0,27.0,-100.00,SSE,163,5.0,10.0,21,-99.99,,,0.00,268.000000,,2013-06-13 14:33:00,
2013-06-13 09:01:00,69.0,27.0,-100.00,SSE,163,5.0,10.0,21,-99.99,,,0.00,268.000000,,2013-06-13 15:01:00,
2013-06-13 09:12:00,72.0,31.0,-100.00,SSE,163,4.0,11.0,22,0.00,,,0.00,453.000000,,2013-06-13 15:12:00,
2013-06-13 09:33:00,72.0,31.0,-100.00,SSE,163,4.0,11.0,22,0.00,,,0.00,453.000000,,2013-06-13 15:33:00,
2013-06-13 09:43:00,72.0,31.0,-100.00,SSE,163,4.0,11.0,22,0.00,,,0.00,453.000000,,2013-06-13 15:43:00,
2013-06-13 09:53:00,72.0,31.0,-100.00,SSE,163,4.0,11.0,22,0.00,,,0.00,453.000000,,2013-06-13 15:53:00,
2013-06-13 10:02:00,72.0,31.0,-100.00,SSE,163,4.0,11.0,22,0.00,,,0.00,453.000000,,2013-06-13 16:02:00,
2013-06-13 10:33:00,77.0,33.0,-100.00,North,0,3.0,7.0,20,0.00,,,0.00,646.000000,,2013-06-13 16:33:00,
2013-06-13 10:43:00,77.0,33.0,-100.00,North,0,3.0,7.0,20,0.00,,,0.00,646.000000,,2013-06-13 16:43:00,
2013-06-13 10:53:00,77.0,33.0,-100.00,North,0,3.0,7.0,20,0.00,,,0.00,646.000000,,2013-06-13 16:53:00,
2013-06-13 11:02:00,77.0,33.0,-100.00,North,0,3.0,7.0,20,0.00,,,0.00,646.000000,,2013-06-13 17:02:00,
2013-06-13 11:11:00,77.0,33.0,-100.00,North,0,3.0,7.0,20,0.00,,,0.00,646.000000,,2013-06-13 17:11:00,
2013-06-13 11:33:00,81.0,29.0,-100.00,West,277,5.0,9.0,15,0.00,,,0.00,786.000000,,2013-06-13 17:33:00,
2013-06-13 11:43:00,81.0,29.0,-100.00,West,277,5.0,9.0,15,0.00,,,0.00,786.000000,,2013-06-13 17:43:00,
2013-06-13 11:53:00,81.0,29.0,-100.00,West,277,5.0,9.0,15,0.00,,,0.00,786.000000,,2013-06-13 17:53:00,
2013-06-13 12:02:00,81.0,29.0,-100.00,West,277,5.0,9.0,15,0.00,,,0.00,786.000000,,2013-06-13 18:02:00,
2013-06-13 12:11:00,81.0,29.0,-100.00,West,277,5.0,9.0,15,0.00,,,0.00,786.000000,,2013-06-13 18:11:00,
2013-06-13 12:33:00,80.0,28.0,-100.00,West,262,7.0,14.0,15,0.00,,,0.00,854.000000,,2013-06-13 18:33:00,
2013-06-13 12:43:00,80.0,28.0,-100.00,West,262,7.0,14.0,15,0.00,,,0.00,854.000000,,2013-06-13 18:43:00,
2013-06-13 12:52:00,80.0,28.0,-100.00,West,262,7.0,14.0,15,0.00,,,0.00,854.000000,,2013-06-13 18:52:00,
2013-06-13 13:01:00,80.0,28.0,-100.00,West,262,7.0,14.0,15,0.00,,,0.00,854.000000,,2013-06-13 19:01:00,
2013-06-13 13:11:00,80.0,28.0,-100.00,West,262,7.0,14.0,15,0.00,,,0.00,854.000000,,2013-06-13 19:11:00,
2013-06-13 13:33:00,82.0,28.0,-100.00,WSW,238,6.0,14.0,14,0.00,,,0.00,847.000000,,2013-06-13 19:33:00,
2013-06-13 13:43:00,82.0,28.0,-100.00,WSW,238,6.0,14.0,14,0.00,,,0.00,847.000000,,2013-06-13 19:43:00,
2013-06-13 13:53:00,82.0,28.0,-100.00,WSW,238,6.0,14.0,14,0.00,,,0.00,847.000000,,2013-06-13 19:53:00,
2013-06-13 14:01:00,82.0,28.0,-100.00,WSW,238,6.0,14.0,14,0.00,,,0.00,847.000000,,2013-06-13 20:01:00,
2013-06-13 14:11:00,82.0,28.0,-100.00,WSW,238,6.0,14.0,14,0.00,,,0.00,847.000000,,2013-06-13 20:11:00,
2013-06-13 14:33:00,86.0,29.0,-100.00,WSW,249,7.0,16.0,13,0.00,,,0.00,931.000000,,2013-06-13 20:33:00,
2013-06-13 14:44:00,86.0,29.0,-100.00,WSW,249,7.0,16.0,13,0.00,,,0.00,931.000000,,2013-06-13 20:44:00,
2013-06-13 14:53:00,86.0,29.0,-100.00,WSW,249,7.0,16.0,13,0.00,,,0.00,931.000000,,2013-06-13 20:53:00,
2013-06-13 15:02:00,86.0,29.0,-100.00,WSW,249,7.0,16.0,13,0.00,,,0.00,931.000000,,2013-06-13 21:02:00,
2013-06-13 15:11:00,86.0,29.0,-100.00,WSW,249,7.0,16.0,13,0.00,,,0.00,931.000000,,2013-06-13 21:11:00,
2013-06-13 15:34:00,82.0,26.0,-100.00,WSW,239,6.0,16.0,13,0.00,,,-99.99,762.000000,,2013-06-13 21:34:00,
2013-06-13 15:43:00,82.0,26.0,-100.00,WSW,239,6.0,16.0,13,0.00,,,-99.99,762.000000,,2013-06-13 21:43:00,
2013-06-13 15:52:00,82.0,26.0,-100.00,WSW,239,6.0,16.0,13,0.00,,,-99.99,762.000000,,2013-06-13 21:52:00,
2013-06-13 16:02:00,82.0,26.0,-100.00,WSW,239,6.0,16.0,13,0.00,,,-99.99,762.000000,,2013-06-13 22:02:00,
2013-06-13 16:11:00,82.0,26.0,-100.00,WSW,239,6.0,16.0,13,0.00,,,-99.99,762.000000,,2013-06-13 22:11:00,
2013-06-13 16:33:00,80.0,28.0,-100.00,West,260,12.0,21.0,15,0.00,,,0.00,401.000000,,2013-06-13 22:33:00,
2013-06-13 16:43:00,80.0,28.0,-100.00,West,260,12.0,21.0,15,0.00,,,0.00,401.000000,,2013-06-13 22:43:00,
2013-06-13 16:52:00,80.0,28.0,-100.00,West,260,12.0,21.0,15,0.00,,,0.00,401.000000,,2013-06-13 22:52:00,
2013-06-13 17:02:00,80.0,28.0,-100.00,West,260,12.0,21.0,15,0.00,,,0.00,401.000000,,2013-06-13 23:02:00,
2013-06-13 17:11:00,80.0,28.0,-100.00,West,260,12.0,21.0,15,0.00,,,0.00,401.000000,,2013-06-13 23:11:00,
2013-06-13 17:32:00,75.0,27.0,-100.00,West,274,9.0,18.0,17,0.00,,,0.00,395.000000,,2013-06-13 23:32:00,
2013-06-13 17:43:00,75.0,27.0,-100.00,West,274,9.0,18.0,17,0.00,,,0.00,395.000000,,2013-06-13 23:43:00,
2013-06-13 17:52:00,75.0,27.0,-100.00,West,274,9.0,18.0,17,0.00,,,0.00,395.000000,,2013-06-13 23:52:00,
2013-06-13 18:01:00,75.0,27.0,-100.00,West,274,9.0,18.0,17,0.00,,,0.00,395.000000,,2013-06-14 00:01:00,
2013-06-13 18:11:00,75.0,27.0,-100.00,West,274,9.0,18.0,17,0.00,,,0.00,395.000000,,2013-06-14 00:11:00,
2013-06-13 18:34:00,75.0,29.0,-100.00,West,267,5.0,16.0,18,0.00,,,0.00,224.000000,,2013-06-14 00:34:00,
2013-06-13 18:43:00,75.0,29.0,-100.00,West,267,5.0,16.0,18,0.00,,,0.00,224.000000,,2013-06-14 00:43:00,
2013-06-13 18:53:00,75.0,29.0,-100.00,West,267,5.0,16.0,18,0.00,,,0.00,224.000000,,2013-06-14 00:53:00,
2013-06-13 19:01:00,75.0,29.0,-100.00,West,267,5.0,16.0,18,0.00,,,0.00,224.000000,,2013-06-14 01:01:00,
2013-06-13 19:11:00,75.0,29.0,-100.00,West,267,5.0,16.0,18,0.00,,,0.00,224.000000,,2013-06-14 01:11:00,
2013-06-13 19:33:00,78.0,30.0,-100.00,WSW,246,4.0,11.0,17,0.00,,,0.00,199.000000,,2013-06-14 01:33:00,
2013-06-13 19:43:00,78.0,30.0,-100.00,WSW,246,4.0,11.0,17,0.00,,,0.00,199.000000,,2013-06-14 01:43:00,
2013-06-13 19:52:00,78.0,30.0,-100.00,WSW,246,4.0,11.0,17,0.00,,,0.00,199.000000,,2013-06-14 01:52:00,
2013-06-13 20:02:00,78.0,30.0,-100.00,WSW,246,4.0,11.0,17,0.00,,,0.00,199.000000,,2013-06-14 02:02:00,
2013-06-13 20:11:00,78.0,30.0,-100.00,WSW,246,4.0,11.0,17,0.00,,,0.00,199.000000,,2013-06-14 02:11:00,
2013-06-13 20:33:00,70.0,27.0,-100.00,SE,130,10.0,23.0,20,0.00,,,0.00,85.000000,,2013-06-14 02:33:00,
2013-06-13 20:43:00,70.0,27.0,-100.00,SE,130,10.0,23.0,20,0.00,,,0.00,85.000000,,2013-06-14 02:43:00,
2013-06-13 20:53:00,70.0,27.0,-100.00,SE,130,10.0,23.0,20,0.00,,,0.00,85.000000,,2013-06-14 02:53:00,
2013-06-13 21:02:00,70.0,27.0,-100.00,SE,130,10.0,23.0,20,0.00,,,0.00,85.000000,,2013-06-14 03:02:00,
2013-06-13 21:11:00,70.0,27.0,-100.00,SE,130,10.0,23.0,20,0.00,,,0.00,85.000000,,2013-06-14 03:11:00,
2013-06-13 21:12:00,63.0,34.0,-100.00,SE,132,12.0,22.0,34,0.00,,,0.00,0.000000,,2013-06-14 03:12:00,
2013-06-13 21:34:00,63.0,34.0,-100.00,SE,132,12.0,22.0,34,0.00,,,0.00,0.000000,,2013-06-14 03:34:00,
2013-06-13 21:43:00,63.0,34.0,-100.00,SE,132,12.0,22.0,34,0.00,,,0.00,0.000000,,2013-06-14 03:43:00,
2013-06-13 21:53:00,63.0,34.0,-100.00,SE,132,12.0,22.0,34,0.00,,,0.00,0.000000,,2013-06-14 03:53:00,
2013-06-13 22:01:00,63.0,34.0,-100.00,SE,132,12.0,22.0,34,0.00,,,0.00,0.000000,,2013-06-14 04:01:00,
2013-06-13 22:33:00,63.0,36.0,-100.00,SE,146,12.0,18.0,36,0.00,,,0.00,0.000000,,2013-06-14 04:33:00,
2013-06-13 22:43:00,63.0,36.0,-100.00,SE,146,12.0,18.0,36,0.00,,,0.00,0.000000,,2013-06-14 04:43:00,
2013-06-13 22:53:00,63.0,36.0,-100.00,SE,146,12.0,18.0,36,0.00,,,0.00,0.000000,,2013-06-14 04:53:00,
2013-06-13 23:02:00,63.0,36.0,-100.00,SE,146,12.0,18.0,36,0.00,,,0.00,0.000000,,2013-06-14 05:02:00,
2013-06-13 23:11:00,63.0,36.0,-100.00,SE,146,12.0,18.0,36,0.00,,,0.00,0.000000,,2013-06-14 05:11:00,
2013-06-13 23:12:00,62.0,35.0,-100.00,NNW,333,9.0,13.0,37,0.00,,,0.00,0.000000,,2013-06-14 05:12:00,
2013-06-13 23:34:00,62.0,35.0,-100.00,NNW,333,9.0,13.0,37,0.00,,,0.00,0.000000,,2013-06-14 05:34:00,
2013-06-13 23:43:00,62.0,35.0,-100.00,NNW,333,9.0,13.0,37,0.00,,,0.00,0.000000,,2013-06-14 05:43:00,
2013-06-13 23:52:00,62.0,35.0,-100.00,NNW,333,9.0,13.0,37,0.00,,,0.00,0.000000,,2013-06-14 05:52:00,